Latest  Newer  Older  Last 2 hours slideshow  Last 24 hours slideshow  Refresh every 5 minutes 
Current image  Latest image  Rain/snow radar  Cloud coverage sat images 

All time is UTC (add 2 hours to UTC in wintertime, 3 hours to UTC in DST for Latvia local time)

2020/11/29 08:50 EVRA 290850Z 06004KT 9999 FEW013 02/M00 Q1025 R36/190095 NOSIG
2020/11/29 08:50 EVLA 290850Z AUTO 03003KT 9999 FEW061/// 00/M01 Q1025
2020/11/29 08:50 EVVA 290850Z AUTO 12003KT 9999 OVC046 02/02 Q1026
2020/11/29 08:50 EYKA 290850Z 03006KT 340V080 9999 OVC011 02/M02 Q1022 R08/290095
2020/11/29 08:50 EYPA 290850Z 05007KT 9999 FEW006 BKN062 00/M01 Q1025
2020/11/29 08:50 EYSA 290850Z 04006KT 9999 BKN006 OVC010 M00/M01 Q1024 R32R/29//95 R32L/29//95 YLO TEMPO OVC007 GRN
2020/11/29 08:50 EYVI 290850Z 02009KT 9999 SCT007 BKN047 M00/M01 Q1020 R01/2///95 NOSIG

2020/11/29 08:50 EEKE 290850Z 04007KT 9999 SCT017 BKN023 OVC048 02/01 Q1027

2020/11/29 08:50 EETN 290850Z 10006KT 9999 BKN011 M00/M01 Q1029 R08/31//95 NOSIG
2020/11/29 08:50 EETU 290850Z 05005KT 010V070 9999 OVC007 01/M01 Q1027
   RIGA AIRPORT     EVRA               56 55N  023 58E   10   X     T          6 LV
   LIEPAJA INTL     EVLA        26406  56 31N  021 06E    4   X                8 LV
   VENTPILS         EVVA               57 21N  021 33E    6   X                8 LV
   KAUNAS           EYKA               54 54N  023 55E   77   X     T          6 LT
   PALANGA INTL     EYPA               55 55N  021 03E   10   X                6 LT
   SIAULIAI INTL    EYSA               55 54N  023 24E  135   X     T          6 LT
   VILNIUS INTL     EYVI        26730  54 38N  025 17E  197   X     T          6 LT
   KARDLA           EEKA        26116  58 59N  022 50E    4   X                8 EE
   KURESSAARE       EEKE               58 14N  022 31E    4   X                8 EE
   PARNU            EEPU               58 25N  024 28E   14   X                8 EE
   TALLINN          EETN        26038  59 24N  024 49E   40   X     T          8 EE
   TARTU            EETU               58 19N  026 41E   67   X                8 EE